Time;durP1;ratioP1;P1;durP2;ratioP2;P2;SDS_P1;SDS_P2;PMS_P1;PMS_P2;Temp;Humidity;BMP_temperature;BMP_pressure;BME280_temperature;BME280_humidity;BME280_pressure;Samples;Min_cycle;Max_cycle;Signal;HPM_P1;HPM_P2
2023/07/28 00:01:35;;;;;;;6.25;5.68;;;17.80;99.90;;;;;;5015622;28;20207;-84
2023/07/28 00:04:04;;;;;;;7.00;5.72;;;17.90;99.90;;;;;;5016612;28;20291;-84
2023/07/28 00:06:31;;;;;;;7.50;6.00;;;17.80;99.90;;;;;;5016243;28;20232;-84
2023/07/28 00:08:57;;;;;;;6.43;5.82;;;17.80;99.90;;;;;;5015908;28;20258;-84
2023/07/28 00:11:24;;;;;;;8.40;6.05;;;17.80;99.90;;;;;;5016447;28;20206;-84
2023/07/28 00:13:53;;;;;;;6.82;6.05;;;17.90;99.90;;;;;;5016264;28;20323;-84
2023/07/28 00:16:20;;;;;;;7.72;6.88;;;17.80;99.90;;;;;;5015970;28;20231;-84
2023/07/28 00:18:47;;;;;;;8.43;6.32;;;17.80;99.90;;;;;;5016404;28;20208;-84
2023/07/28 00:21:13;;;;;;;7.47;6.35;;;17.80;99.90;;;;;;5016545;28;20224;-84
2023/07/28 00:23:40;;;;;;;6.93;6.05;;;17.80;99.90;;;;;;5015874;28;20212;-85
2023/07/28 00:26:08;;;;;;;7.95;6.60;;;17.80;99.90;;;;;;5015780;28;20232;-84
2023/07/28 00:28:34;;;;;;;7.43;6.70;;;17.70;99.90;;;;;;5016696;28;20649;-85
2023/07/28 00:31:03;;;;;;;7.68;6.97;;;17.80;99.90;;;;;;5015954;28;20211;-84
2023/07/28 00:33:29;;;;;;;6.93;6.22;;;17.80;99.90;;;;;;5015935;28;20753;-84
2023/07/28 00:35:56;;;;;;;7.50;6.80;;;17.80;99.90;;;;;;5015417;28;20254;-83
2023/07/28 00:38:23;;;;;;;7.15;6.50;;;17.80;99.90;;;;;;5014684;28;20658;-84
2023/07/28 00:40:50;;;;;;;6.80;6.20;;;17.70;99.90;;;;;;5015037;28;20659;-84
2023/07/28 00:43:16;;;;;;;6.65;6.05;;;17.70;99.90;;;;;;5015209;28;20196;-85
2023/07/28 00:45:44;;;;;;;8.23;6.53;;;17.80;99.90;;;;;;5015351;28;20555;-84
2023/07/28 00:48:15;;;;;;;6.28;5.72;;;17.80;99.90;;;;;;5015085;28;20209;-85
2023/07/28 00:50:42;;;;;;;6.97;5.85;;;17.80;99.90;;;;;;5013987;28;20200;-84
2023/07/28 00:53:09;;;;;;;6.82;6.20;;;17.80;99.90;;;;;;5016243;28;20299;-85
2023/07/28 00:55:36;;;;;;;8.43;6.03;;;17.80;99.90;;;;;;5016569;28;20206;-84
2023/07/28 00:58:03;;;;;;;8.25;5.80;;;17.80;99.90;;;;;;5016823;28;20678;-84
2023/07/28 01:00:30;;;;;;;5.90;5.32;;;17.80;99.90;;;;;;5016385;28;20287;-84
2023/07/28 01:02:57;;;;;;;7.72;5.60;;;17.80;99.90;;;;;;5016025;28;20208;-84
2023/07/28 01:05:31;;;;;;;6.90;5.97;;;17.80;99.90;;;;;;5016571;28;20200;-83
2023/07/28 01:08:04;;;;;;;6.63;5.55;;;17.80;99.90;;;;;;5015727;28;20208;-84
2023/07/28 01:10:32;;;;;;;11.75;5.70;;;17.80;99.90;;;;;;5014633;28;20211;-85
2023/07/28 01:12:59;;;;;;;6.05;5.40;;;17.90;99.90;;;;;;5013963;28;20619;-84
2023/07/28 01:15:26;;;;;;;10.60;5.88;;;17.80;99.90;;;;;;5014113;28;20242;-85
2023/07/28 01:17:53;;;;;;;7.10;6.40;;;17.80;99.90;;;;;;5014195;28;20290;-84
2023/07/28 01:20:23;;;;;;;6.35;5.75;;;17.70;99.90;;;;;;5014787;28;20278;-84
2023/07/28 01:23:08;;;;;;;8.30;5.90;;;17.80;99.90;;;;;;5014933;28;20208;-85
2023/07/28 01:25:44;;;;;;;8.23;5.93;;;17.80;99.90;;;;;;5015280;28;20208;-84
2023/07/28 01:28:14;;;;;;;6.30;5.55;;;17.80;99.90;;;;;;5014592;28;20275;-83
2023/07/28 01:30:41;;;;;;;6.50;5.20;;;17.80;99.90;;;;;;5015006;28;20211;-84
2023/07/28 01:33:09;;;;;;;5.25;4.75;;;17.90;99.90;;;;;;5014901;28;20200;-84
2023/07/28 01:35:38;;;;;;;7.03;4.55;;;17.80;99.90;;;;;;5014104;28;20204;-84
2023/07/28 01:38:05;;;;;;;4.80;4.40;;;17.80;99.90;;;;;;5014517;28;20192;-84
2023/07/28 01:40:32;;;;;;;4.57;4.18;;;17.80;99.90;;;;;;5012584;28;20207;-83
2023/07/28 01:42:59;;;;;;;7.30;3.95;;;17.80;99.90;;;;;;5013371;28;20697;-85
2023/07/28 01:45:27;;;;;;;4.00;3.60;;;17.80;99.90;;;;;;5014697;28;20578;-84
2023/07/28 01:47:54;;;;;;;5.90;4.10;;;17.80;99.90;;;;;;5013978;28;20215;-84
2023/07/28 01:50:20;;;;;;;4.15;3.85;;;17.80;99.90;;;;;;5014556;28;20621;-84
2023/07/28 01:52:47;;;;;;;3.85;3.50;;;17.80;99.90;;;;;;5014120;28;20259;-85
2023/07/28 01:55:14;;;;;;;4.65;3.53;;;17.80;99.90;;;;;;5013888;28;20224;-84
2023/07/28 01:57:50;;;;;;;3.92;3.25;;;17.80;99.90;;;;;;5012776;28;20761;-84
2023/07/28 02:00:18;;;;;;;3.15;2.85;;;17.80;99.90;;;;;;5014065;28;20220;-84
2023/07/28 02:02:46;;;;;;;4.03;3.22;;;17.80;99.90;;;;;;5013475;28;20215;-84
2023/07/28 02:05:13;;;;;;;3.35;3.13;;;17.70;99.90;;;;;;5013993;28;20196;-84
2023/07/28 02:07:40;;;;;;;3.70;2.55;;;17.80;99.90;;;;;;5013538;28;20599;-85
2023/07/28 02:10:07;;;;;;;6.43;2.63;;;17.80;99.90;;;;;;5013840;28;20622;-85
2023/07/28 02:12:34;;;;;;;3.58;2.90;;;17.80;99.90;;;;;;5014202;28;20200;-85
2023/07/28 02:15:01;;;;;;;3.55;2.72;;;17.80;99.90;;;;;;5013556;28;20224;-84
2023/07/28 02:17:28;;;;;;;6.60;3.20;;;17.80;99.90;;;;;;5013217;28;20220;-84
2023/07/28 02:19:56;;;;;;;2.85;2.65;;;17.80;99.90;;;;;;5013428;28;20673;-84
2023/07/28 02:22:23;;;;;;;2.90;2.60;;;17.80;99.90;;;;;;5013827;28;20209;-85
2023/07/28 02:24:49;;;;;;;6.10;3.13;;;17.70;99.90;;;;;;5013120;28;20206;-84
2023/07/28 02:27:16;;;;;;;3.60;2.85;;;17.80;99.90;;;;;;5011987;28;20235;-85
2023/07/28 02:29:43;;;;;;;3.88;2.70;;;17.80;99.90;;;;;;5013236;28;20203;-84
2023/07/28 02:32:10;;;;;;;2.67;2.47;;;17.70;99.90;;;;;;5011570;28;20214;-84
2023/07/28 02:34:37;;;;;;;3.40;2.67;;;17.70;99.90;;;;;;5014202;28;20566;-85
2023/07/28 02:37:05;;;;;;;2.70;2.50;;;17.70;99.90;;;;;;5013206;28;20232;-85
2023/07/28 02:39:32;;;;;;;2.65;2.45;;;17.70;99.90;;;;;;5013890;28;20219;-83
2023/07/28 02:41:59;;;;;;;4.68;3.47;;;17.80;99.90;;;;;;5015182;28;20208;-84
2023/07/28 02:44:25;;;;;;;4.40;3.10;;;17.70;99.90;;;;;;5014192;28;20204;-85
2023/07/28 02:46:52;;;;;;;2.90;2.67;;;17.70;99.90;;;;;;5014459;28;20227;-83
2023/07/28 02:49:19;;;;;;;3.92;2.92;;;17.70;99.90;;;;;;5015628;28;20206;-84
2023/07/28 02:51:46;;;;;;;3.35;3.08;;;17.70;99.90;;;;;;5014875;28;20714;-84
2023/07/28 02:54:14;;;;;;;4.13;2.60;;;17.70;99.90;;;;;;5015353;28;20230;-84
2023/07/28 02:56:41;;;;;;;5.72;2.90;;;17.70;99.90;;;;;;5014847;28;20242;-84
2023/07/28 02:59:08;;;;;;;3.55;3.10;;;17.70;99.90;;;;;;5015580;28;20201;-84
2023/07/28 03:01:35;;;;;;;3.20;2.90;;;17.60;99.90;;;;;;5015477;28;20295;-83
2023/07/28 03:04:02;;;;;;;3.53;2.55;;;17.80;99.90;;;;;;5015846;28;20204;-84
2023/07/28 03:06:29;;;;;;;2.97;2.78;;;17.70;99.90;;;;;;5014797;28;20228;-84
2023/07/28 03:08:56;;;;;;;4.00;3.13;;;17.80;99.90;;;;;;5015375;28;20272;-84
2023/07/28 03:11:24;;;;;;;2.70;2.50;;;17.80;99.90;;;;;;5015371;28;20200;-81
2023/07/28 03:13:51;;;;;;;4.43;2.50;;;17.80;99.90;;;;;;5013593;28;20580;-83
2023/07/28 03:16:17;;;;;;;2.88;2.40;;;17.70;99.90;;;;;;5014021;28;20216;-84
2023/07/28 03:18:44;;;;;;;5.45;2.55;;;17.70;99.90;;;;;;5014266;28;20674;-84
2023/07/28 03:21:11;;;;;;;8.02;2.80;;;17.70;99.90;;;;;;5013161;28;20208;-84
2023/07/28 03:23:38;;;;;;;2.92;2.45;;;17.80;99.90;;;;;;5013257;28;20204;-84
2023/07/28 03:26:05;;;;;;;2.95;2.75;;;17.70;99.90;;;;;;5014623;28;20323;-85
2023/07/28 03:28:33;;;;;;;3.03;2.50;;;17.70;99.90;;;;;;5017534;28;20584;-84
2023/07/28 03:31:00;;;;;;;4.90;2.97;;;17.70;99.90;;;;;;5018636;28;20295;-85
2023/07/28 03:33:26;;;;;;;7.00;4.88;;;17.70;99.90;;;;;;5017305;28;20204;-84
2023/07/28 03:35:53;;;;;;;2.63;2.38;;;17.70;99.90;;;;;;5017202;28;20224;-84
2023/07/28 03:38:20;;;;;;;3.33;2.80;;;17.80;99.90;;;;;;5017446;28;20733;-84
2023/07/28 03:40:47;;;;;;;4.57;2.70;;;17.80;99.90;;;;;;5017440;28;20271;-84
2023/07/28 03:43:14;;;;;;;3.20;2.60;;;17.70;99.90;;;;;;5018053;28;20196;-84
2023/07/28 03:45:42;;;;;;;2.70;2.50;;;17.80;99.90;;;;;;5017624;28;20232;-84
2023/07/28 03:48:09;;;;;;;2.78;2.45;;;17.70;99.90;;;;;;5017593;28;20205;-84
2023/07/28 03:50:36;;;;;;;3.55;2.90;;;17.70;99.90;;;;;;5017740;28;20200;-85
2023/07/28 03:53:02;;;;;;;3.97;2.75;;;17.70;99.90;;;;;;5017658;28;20204;-84
2023/07/28 03:55:29;;;;;;;2.75;2.55;;;17.70;99.90;;;;;;5017408;28;20224;-85
2023/07/28 03:57:56;;;;;;;5.03;2.70;;;17.70;99.90;;;;;;5016635;28;20200;-84
2023/07/28 04:00:23;;;;;;;4.28;2.95;;;17.70;99.90;;;;;;5012277;28;20210;-84
2023/07/28 04:02:51;;;;;;;2.60;2.40;;;17.80;99.90;;;;;;5005081;28;20595;-84
2023/07/28 04:05:18;;;;;;;2.80;2.60;;;17.70;99.90;;;;;;5008605;28;20212;-85
2023/07/28 04:07:45;;;;;;;3.20;2.90;;;17.80;99.90;;;;;;5009078;28;20231;-85
2023/07/28 04:10:12;;;;;;;6.57;3.10;;;17.80;99.90;;;;;;5015416;28;20208;-85
2023/07/28 04:12:39;;;;;;;4.63;3.00;;;17.80;99.90;;;;;;5013749;28;20211;-84
2023/07/28 04:15:06;;;;;;;3.20;2.88;;;17.80;99.90;;;;;;5011288;28;20603;-84
2023/07/28 04:17:33;;;;;;;5.32;2.65;;;17.80;99.90;;;;;;5015894;28;20220;-84
2023/07/28 04:20:01;;;;;;;5.32;3.28;;;17.80;99.90;;;;;;5016025;28;20206;-84
2023/07/28 04:22:28;;;;;;;3.67;3.00;;;17.70;99.90;;;;;;5016543;28;20262;-84
2023/07/28 04:24:55;;;;;;;3.22;3.00;;;17.80;99.90;;;;;;5016554;28;20205;-84
2023/07/28 04:27:22;;;;;;;3.28;2.97;;;17.80;99.90;;;;;;5016112;28;20227;-84
2023/07/28 04:29:49;;;;;;;2.80;2.60;;;17.90;99.90;;;;;;5016204;28;20655;-84
2023/07/28 04:32:15;;;;;;;3.47;3.22;;;17.80;99.90;;;;;;4997198;28;20552;-84
2023/07/28 04:34:43;;;;;;;5.15;3.10;;;17.90;99.90;;;;;;4996865;28;20236;-85
2023/07/28 04:37:11;;;;;;;3.58;3.10;;;17.90;99.90;;;;;;5004657;28;20225;-84
2023/07/28 04:39:38;;;;;;;2.90;2.70;;;18.00;99.90;;;;;;5015660;28;20196;-85
2023/07/28 04:42:05;;;;;;;3.47;2.83;;;17.90;99.90;;;;;;5016080;28;20201;-85
2023/07/28 04:44:32;;;;;;;2.67;2.47;;;17.80;99.90;;;;;;5015755;28;20685;-85
2023/07/28 04:46:59;;;;;;;2.35;2.20;;;17.90;99.90;;;;;;5014801;28;20303;-85
2023/07/28 04:49:25;;;;;;;2.67;2.40;;;17.80;99.90;;;;;;5015215;28;20290;-84
2023/07/28 04:51:52;;;;;;;3.50;2.47;;;17.80;99.90;;;;;;5014837;28;20211;-85
2023/07/28 04:54:20;;;;;;;2.72;2.53;;;17.90;99.90;;;;;;5014503;28;20216;-84
2023/07/28 04:56:49;;;;;;;3.65;2.50;;;17.80;99.90;;;;;;5013427;28;20295;-85
2023/07/28 04:59:16;;;;;;;2.15;2.05;;;17.80;99.90;;;;;;5014452;28;20651;-85
2023/07/28 05:01:43;;;;;;;2.42;2.05;;;17.80;99.90;;;;;;5013920;28;20371;-85
2023/07/28 05:04:10;;;;;;;3.13;1.98;;;17.80;99.90;;;;;;5014542;28;20210;-85
2023/07/28 05:06:36;;;;;;;2.28;2.08;;;17.90;99.90;;;;;;5013625;28;20283;-85
2023/07/28 05:09:03;;;;;;;2.78;2.40;;;17.80;99.90;;;;;;5004010;28;20205;-85
2023/07/28 05:11:31;;;;;;;2.40;2.20;;;17.80;99.90;;;;;;4994642;28;20205;-85
2023/07/28 05:13:58;;;;;;;3.55;2.47;;;17.80;99.90;;;;;;4995019;28;20651;-85
2023/07/28 05:16:25;;;;;;;7.13;2.80;;;17.80;99.90;;;;;;4993709;28;20232;-85
2023/07/28 05:18:52;;;;;;;2.78;2.58;;;17.80;99.90;;;;;;4994725;28;20209;-84
2023/07/28 05:21:18;;;;;;;2.97;2.78;;;17.80;99.90;;;;;;4995072;28;20212;-85
2023/07/28 05:23:45;;;;;;;5.32;3.22;;;18.00;99.90;;;;;;4994287;28;20205;-85
2023/07/28 05:26:12;;;;;;;3.50;3.20;;;17.80;99.90;;;;;;4993677;28;20221;-85
2023/07/28 05:28:40;;;;;;;3.35;3.10;;;17.90;99.90;;;;;;4994176;28;20212;-84
2023/07/28 05:31:07;;;;;;;4.38;2.90;;;17.90;99.90;;;;;;4994280;28;20232;-84
2023/07/28 05:33:34;;;;;;;5.38;3.45;;;17.80;99.90;;;;;;4993972;28;20198;-85
2023/07/28 05:36:01;;;;;;;3.90;3.53;;;17.90;99.90;;;;;;4993595;28;20239;-84
2023/07/28 05:38:28;;;;;;;4.75;4.22;;;17.90;99.90;;;;;;4993783;28;20216;-85
2023/07/28 05:41:00;;;;;;;4.80;4.20;;;17.90;99.90;;;;;;4993936;28;20209;-85
2023/07/28 05:43:27;;;;;;;4.22;3.83;;;18.00;99.90;;;;;;4994142;28;20296;-83
2023/07/28 05:45:55;;;;;;;4.20;3.88;;;18.10;99.90;;;;;;5002137;28;20220;-85
2023/07/28 05:48:22;;;;;;;5.78;4.07;;;18.00;99.90;;;;;;5012728;28;20204;-85
2023/07/28 05:50:48;;;;;;;4.40;4.03;;;18.00;99.90;;;;;;5012410;28;20208;-85
2023/07/28 05:53:15;;;;;;;4.97;4.50;;;18.00;99.90;;;;;;5012795;28;20203;-85
2023/07/28 05:55:42;;;;;;;4.43;4.03;;;18.00;99.90;;;;;;5009872;28;20689;-85
2023/07/28 05:58:09;;;;;;;5.93;4.50;;;18.00;99.90;;;;;;5010901;28;20252;-84
2023/07/28 06:00:36;;;;;;;4.63;4.22;;;18.20;99.90;;;;;;5011701;28;20207;-85
2023/07/28 06:03:04;;;;;;;5.15;4.45;;;18.10;99.90;;;;;;5011750;28;20322;-85
2023/07/28 06:05:31;;;;;;;4.43;4.03;;;18.20;99.90;;;;;;5012789;28;20196;-85
2023/07/28 06:07:58;;;;;;;7.50;4.38;;;18.30;99.90;;;;;;5012053;28;20283;-85
2023/07/28 06:10:25;;;;;;;6.03;4.68;;;18.30;99.90;;;;;;5011613;28;20196;-84
2023/07/28 06:12:52;;;;;;;5.95;4.68;;;18.50;99.90;;;;;;5014108;28;20200;-82
2023/07/28 06:15:18;;;;;;;4.97;4.20;;;18.50;99.90;;;;;;5015150;28;20228;-84
2023/07/28 06:17:45;;;;;;;4.93;4.43;;;18.60;99.90;;;;;;5013994;28;20228;-84
2023/07/28 06:20:13;;;;;;;6.68;4.68;;;18.70;99.90;;;;;;5014725;28;20682;-84
2023/07/28 06:22:41;;;;;;;5.78;4.40;;;18.80;99.90;;;;;;5014833;28;20200;-84
2023/07/28 06:25:08;;;;;;;5.53;4.18;;;18.80;99.90;;;;;;5014767;28;20200;-84
2023/07/28 06:27:35;;;;;;;4.30;3.97;;;18.80;99.90;;;;;;5014811;28;20220;-83
2023/07/28 06:30:02;;;;;;;4.18;3.78;;;18.80;99.90;;;;;;5015230;28;20278;-83
2023/07/28 06:32:28;;;;;;;5.50;4.03;;;18.90;99.90;;;;;;5015168;28;20216;-84
2023/07/28 06:34:55;;;;;;;5.85;4.50;;;18.90;99.90;;;;;;5014840;28;20279;-82
2023/07/28 06:37:23;;;;;;;4.97;4.30;;;18.90;99.90;;;;;;5016823;28;20650;-83
2023/07/28 06:39:50;;;;;;;4.68;4.28;;;18.80;99.90;;;;;;5002324;28;20209;-83
2023/07/28 06:42:23;;;;;;;6.60;4.50;;;18.90;99.90;;;;;;5014013;28;20745;-83
2023/07/28 06:44:50;;;;;;;6.28;4.45;;;18.90;99.90;;;;;;5003851;28;20200;-84
2023/07/28 06:47:17;;;;;;;5.57;5.07;;;18.90;99.90;;;;;;5015729;28;20242;-82
2023/07/28 06:49:44;;;;;;;5.15;4.63;;;18.90;99.90;;;;;;4998542;28;20208;-84
2023/07/28 06:52:11;;;;;;;5.75;5.13;;;18.80;99.90;;;;;;5009516;28;20201;-84
2023/07/28 06:54:39;;;;;;;8.00;4.93;;;18.60;99.90;;;;;;5013935;28;20243;-84
2023/07/28 06:57:07;;;;;;;5.45;4.82;;;18.60;99.90;;;;;;5013726;28;20224;-84
2023/07/28 06:59:34;;;;;;;7.00;5.55;;;18.60;99.90;;;;;;5013476;28;20623;-84
2023/07/28 07:02:01;;;;;;;6.25;5.53;;;18.60;99.90;;;;;;5014243;28;20277;-84
2023/07/28 07:04:27;;;;;;;8.95;5.50;;;18.50;99.90;;;;;;5015133;28;20211;-83
2023/07/28 07:06:54;;;;;;;6.68;5.57;;;18.50;99.90;;;;;;5014574;28;20230;-84
2023/07/28 07:09:21;;;;;;;6.88;5.65;;;18.30;99.90;;;;;;5014118;28;20196;-84
2023/07/28 07:11:49;;;;;;;11.05;5.70;;;18.40;99.90;;;;;;5015332;28;20693;-83
2023/07/28 07:14:16;;;;;;;8.15;5.78;;;18.60;99.90;;;;;;5014096;28;20280;-83
2023/07/28 07:16:43;;;;;;;7.80;6.65;;;18.50;99.90;;;;;;5014554;28;20232;-83
2023/07/28 07:19:10;;;;;;;7.07;6.20;;;18.60;99.90;;;;;;5014397;28;20274;-84
2023/07/28 07:28:29;;;;;;;8.20;6.32;;;18.70;99.90;;;;;;5013543;28;20195;-84
2023/07/28 07:30:56;;;;;;;6.05;5.45;;;18.80;99.90;;;;;;5014890;28;20207;-84
2023/07/28 07:33:22;;;;;;;7.30;6.00;;;18.80;99.90;;;;;;5014790;28;20232;-84
2023/07/28 07:35:49;;;;;;;7.50;5.75;;;18.80;99.90;;;;;;5014455;28;20234;-84
2023/07/28 07:38:16;;;;;;;6.15;5.55;;;18.90;99.90;;;;;;4999372;28;20204;-84
2023/07/28 07:40:43;;;;;;;5.40;4.88;;;18.90;99.90;;;;;;4993631;28;20207;-84
2023/07/28 07:43:10;;;;;;;6.05;5.47;;;19.10;99.90;;;;;;5004826;28;20214;-83
2023/07/28 07:45:38;;;;;;;6.80;5.30;;;19.30;99.90;;;;;;5012943;28;20679;-83
2023/07/28 07:48:05;;;;;;;5.85;5.13;;;19.40;99.90;;;;;;5014150;28;20212;-83
2023/07/28 07:50:32;;;;;;;7.07;5.07;;;19.50;99.90;;;;;;5014328;28;20210;-84
2023/07/28 07:52:59;;;;;;;6.90;5.43;;;19.60;99.90;;;;;;5014498;28;20658;-84
2023/07/28 07:55:26;;;;;;;5.57;4.97;;;19.70;99.90;;;;;;5014494;28;20223;-83
2023/07/28 07:57:53;;;;;;;5.57;5.07;;;19.80;99.90;;;;;;5013537;28;20228;-84
2023/07/28 08:00:20;;;;;;;6.00;5.25;;;19.80;99.90;;;;;;5015052;28;20204;-84
2023/07/28 08:02:48;;;;;;;6.43;5.57;;;19.90;99.90;;;;;;5013966;28;20268;-83
2023/07/28 08:05:15;;;;;;;5.65;4.20;;;20.00;99.90;;;;;;5015121;28;20212;-83
2023/07/28 08:07:42;;;;;;;4.65;4.25;;;20.10;99.90;;;;;;5014253;28;20287;-84
2023/07/28 08:10:09;;;;;;;4.70;4.30;;;20.30;99.90;;;;;;5013652;28;20287;-84
2023/07/28 08:12:36;;;;;;;5.20;4.70;;;20.50;99.90;;;;;;5014864;28;20208;-83
2023/07/28 08:15:03;;;;;;;5.25;4.78;;;20.60;99.90;;;;;;5018208;28;20203;-83
2023/07/28 08:17:30;;;;;;;5.10;4.70;;;20.60;99.90;;;;;;5017229;28;20473;-83
2023/07/28 08:19:58;;;;;;;5.53;5.03;;;20.70;99.90;;;;;;5017719;28;20204;-83
2023/07/28 08:22:25;;;;;;;5.75;4.53;;;20.80;99.90;;;;;;5017032;28;20235;-83
2023/07/28 08:24:52;;;;;;;5.10;4.70;;;20.90;99.90;;;;;;5016405;28;20211;-84
2023/07/28 08:27:19;;;;;;;7.18;4.53;;;21.00;99.90;;;;;;5015658;28;20220;-83
2023/07/28 08:29:46;;;;;;;4.75;4.35;;;21.00;99.90;;;;;;5016797;28;20202;-83
2023/07/28 08:32:13;;;;;;;5.07;4.30;;;20.90;99.90;;;;;;5017323;28;20204;-84
2023/07/28 08:34:39;;;;;;;4.82;4.43;;;21.10;99.90;;;;;;5017098;28;20303;-84
2023/07/28 08:37:07;;;;;;;4.10;3.80;;;21.10;99.90;;;;;;5016192;28;20231;-83
2023/07/28 08:39:34;;;;;;;6.55;4.70;;;21.20;99.90;;;;;;5014646;28;20224;-83
2023/07/28 08:42:02;;;;;;;4.18;3.83;;;21.60;99.90;;;;;;5015077;28;20211;-83
2023/07/28 08:44:32;;;;;;;4.90;3.55;;;21.80;99.90;;;;;;5017378;28;20201;-83
2023/07/28 08:47:00;;;;;;;4.00;3.70;;;21.80;99.90;;;;;;5017013;28;20228;-84
2023/07/28 08:49:27;;;;;;;3.70;3.33;;;21.90;99.90;;;;;;5017075;28;20626;-83
2023/07/28 08:51:59;;;;;;;3.67;3.35;;;21.90;99.90;;;;;;5015708;28;20212;-83
2023/07/28 08:54:27;;;;;;;3.42;3.22;;;22.00;99.90;;;;;;5015671;28;20220;-83
2023/07/28 08:56:54;;;;;;;3.55;3.25;;;22.00;99.90;;;;;;5016508;28;20232;-83
2023/07/28 08:59:24;;;;;;;3.92;3.58;;;22.10;99.90;;;;;;5017159;28;20230;-83
2023/07/28 09:01:51;;;;;;;4.60;3.50;;;22.30;99.90;;;;;;5017136;28;20689;-83
2023/07/28 09:04:18;;;;;;;3.60;3.30;;;22.30;99.90;;;;;;5017140;28;20203;-83
2023/07/28 09:06:46;;;;;;;2.95;2.75;;;22.40;99.90;;;;;;5013155;28;20682;-84
2023/07/28 09:09:13;;;;;;;3.10;2.90;;;22.10;99.90;;;;;;5016670;28;20287;-83
2023/07/28 09:11:47;;;;;;;4.95;2.80;;;22.00;99.90;;;;;;5016804;28;20228;-83
2023/07/28 09:14:16;;;;;;;3.80;3.17;;;21.90;99.90;;;;;;5016220;28;20197;-84
2023/07/28 09:16:43;;;;;;;2.83;2.63;;;22.40;99.90;;;;;;5015834;28;20247;-83
2023/07/28 09:19:10;;;;;;;2.92;2.70;;;22.90;99.90;;;;;;5016468;28;20192;-84
2023/07/28 09:21:38;;;;;;;4.07;2.63;;;23.00;99.90;;;;;;5015118;28;20212;-84
2023/07/28 09:24:06;;;;;;;2.70;2.50;;;23.10;99.90;;;;;;5014939;28;20208;-83
2023/07/28 09:26:39;;;;;;;3.35;3.05;;;23.50;99.90;;;;;;5014177;28;20612;-83
2023/07/28 09:29:16;;;;;;;3.28;3.03;;;23.50;99.90;;;;;;5015469;28;20275;-83
2023/07/28 09:31:43;;;;;;;3.10;2.30;;;23.40;99.90;;;;;;5016510;28;20200;-83
2023/07/28 09:34:10;;;;;;;2.63;2.42;;;23.30;99.90;;;;;;4995546;28;20585;-83
2023/07/28 09:36:38;;;;;;;3.25;2.55;;;22.90;99.90;;;;;;5002333;28;20270;-83
2023/07/28 09:39:07;;;;;;;2.58;2.47;;;23.20;99.90;;;;;;5014573;28;20207;-83
2023/07/28 09:41:36;;;;;;;2.90;2.70;;;23.40;99.90;;;;;;5016052;28;20212;-83
2023/07/28 09:44:03;;;;;;;2.40;2.20;;;23.20;99.90;;;;;;5015525;28;20220;-83
2023/07/28 09:46:34;;;;;;;4.63;2.80;;;23.10;99.90;;;;;;5015539;28;20271;-83
2023/07/28 09:49:05;;;;;;;2.50;2.30;;;23.30;99.90;;;;;;5014614;28;20204;-83
2023/07/28 09:51:35;;;;;;;3.17;2.65;;;23.20;99.90;;;;;;5016534;28;20271;-83
2023/07/28 09:54:06;;;;;;;2.40;2.30;;;23.80;99.90;;;;;;5015403;28;20231;-84
2023/07/28 09:56:34;;;;;;;2.80;2.60;;;23.80;99.90;;;;;;5014966;28;20236;-83
2023/07/28 09:59:04;;;;;;;2.72;2.22;;;23.80;99.90;;;;;;5016669;28;20211;-83
2023/07/28 10:01:33;;;;;;;2.65;2.45;;;23.50;99.90;;;;;;5015889;28;20216;-82
2023/07/28 10:04:01;;;;;;;2.70;2.50;;;23.30;99.90;;;;;;5013128;28;20204;-83
2023/07/28 10:06:29;;;;;;;2.70;2.50;;;23.70;99.90;;;;;;5015570;28;20589;-84
2023/07/28 10:08:56;;;;;;;2.83;2.33;;;24.70;99.90;;;;;;5016206;28;20208;-82
2023/07/28 10:11:24;;;;;;;2.35;2.25;;;24.50;99.90;;;;;;5016626;28;20208;-83
2023/07/28 10:13:54;;;;;;;2.60;2.40;;;24.50;99.90;;;;;;5016370;28;20572;-83
2023/07/28 10:16:30;;;;;;;2.30;2.20;;;24.40;99.90;;;;;;5015768;28;20243;-83
2023/07/28 10:19:00;;;;;;;2.90;2.58;;;24.50;99.90;;;;;;5015619;28;20234;-82
2023/07/28 10:21:29;;;;;;;2.60;2.40;;;24.60;99.90;;;;;;5014507;28;20207;-83
2023/07/28 10:23:57;;;;;;;2.63;2.30;;;25.50;99.90;;;;;;5016213;28;20750;-83
2023/07/28 10:26:36;;;;;;;2.13;2.03;;;25.70;99.90;;;;;;5014999;28;20307;-82
2023/07/28 10:29:13;;;;;;;2.58;2.35;;;25.30;99.90;;;;;;5016979;28;20239;-83
2023/07/28 10:31:51;;;;;;;2.03;1.88;;;25.30;99.90;;;;;;5016771;28;20211;-82
2023/07/28 10:34:21;;;;;;;2.80;2.33;;;25.00;99.90;;;;;;5015977;28;20215;-82
2023/07/28 10:36:56;;;;;;;2.67;2.47;;;24.50;99.90;;;;;;5015045;28;20236;-83
2023/07/28 10:39:23;;;;;;;3.10;2.88;;;24.40;99.90;;;;;;5017026;28;20751;-83
2023/07/28 10:42:03;;;;;;;2.92;2.67;;;24.30;99.90;;;;;;5015731;28;20208;-83
2023/07/28 10:44:30;;;;;;;2.40;2.30;;;25.00;99.90;;;;;;5016491;28;20208;-83
2023/07/28 10:46:57;;;;;;;2.30;2.20;;;25.10;99.90;;;;;;5015298;28;20216;-82
2023/07/28 10:49:27;;;;;;;2.60;2.40;;;25.20;99.90;;;;;;5015940;28;20239;-82
2023/07/28 10:51:54;;;;;;;2.38;2.28;;;24.90;99.90;;;;;;5015913;28;20618;-83
2023/07/28 10:54:21;;;;;;;2.08;1.85;;;24.90;99.90;;;;;;5015545;28;20299;-82
2023/07/28 10:56:48;;;;;;;2.08;1.98;;;25.10;99.90;;;;;;5015584;28;20237;-82
2023/07/28 10:59:16;;;;;;;2.58;2.38;;;25.70;99.90;;;;;;5018208;28;20204;-83
2023/07/28 11:01:44;;;;;;;2.67;2.28;;;25.70;99.90;;;;;;5017457;28;20702;-82
2023/07/28 11:04:13;;;;;;;2.45;2.30;;;25.70;99.90;;;;;;5015593;28;20204;-82
2023/07/28 11:06:43;;;;;;;2.38;2.28;;;25.60;99.90;;;;;;5015116;28;20220;-82
2023/07/28 11:09:10;;;;;;;2.40;2.20;;;25.50;99.90;;;;;;5016893;28;20204;-82
2023/07/28 11:11:38;;;;;;;2.15;1.98;;;25.10;99.90;;;;;;5015374;28;20686;-82
2023/07/28 11:14:07;;;;;;;3.03;2.72;;;25.30;99.90;;;;;;5015523;28;20721;-83
2023/07/28 11:16:35;;;;;;;4.28;2.70;;;25.10;99.90;;;;;;5014759;28;20228;-82
2023/07/28 11:19:03;;;;;;;2.25;2.10;;;24.90;99.90;;;;;;5014563;28;20208;-83
2023/07/28 11:21:30;;;;;;;2.33;2.10;;;24.60;99.90;;;;;;5014122;28;20211;-83
2023/07/28 11:23:58;;;;;;;3.08;2.38;;;24.50;99.90;;;;;;5014314;28;20204;-83
2023/07/28 11:26:25;;;;;;;3.65;2.60;;;24.50;99.90;;;;;;5014362;28;20720;-82
2023/07/28 11:28:53;;;;;;;3.40;2.65;;;24.60;99.90;;;;;;5014837;28;20211;-83
2023/07/28 11:31:25;;;;;;;2.70;2.28;;;24.50;99.90;;;;;;5014629;28;20207;-83
2023/07/28 11:33:53;;;;;;;2.95;2.65;;;24.50;99.90;;;;;;5015346;28;20211;-83
2023/07/28 11:36:23;;;;;;;3.10;2.80;;;24.60;99.90;;;;;;5014257;28;20226;-82
2023/07/28 11:38:51;;;;;;;4.63;3.28;;;24.50;99.90;;;;;;5016278;28;20196;-82
2023/07/28 11:41:20;;;;;;;3.67;3.30;;;25.20;99.90;;;;;;5014782;28;20212;-81
2023/07/28 11:43:48;;;;;;;4.00;3.20;;;24.90;99.90;;;;;;5015962;28;20208;-82
2023/07/28 11:46:33;;;;;;;3.25;2.95;;;24.60;99.90;;;;;;5014970;28;20294;-81
2023/07/28 11:49:08;;;;;;;3.10;2.90;;;24.80;99.90;;;;;;5017818;28;20598;-82
2023/07/28 11:51:39;;;;;;;3.40;3.10;;;24.40;99.90;;;;;;5017391;28;20210;-82
2023/07/28 11:54:07;;;;;;;3.75;3.45;;;24.00;99.90;;;;;;5015392;28;20212;-82
2023/07/28 11:56:35;;;;;;;3.67;3.20;;;24.00;99.90;;;;;;5019189;28;20708;-82
2023/07/28 11:59:03;;;;;;;3.30;3.03;;;23.80;99.90;;;;;;5017320;28;20204;-82
2023/07/28 12:01:30;;;;;;;3.58;3.28;;;23.70;99.90;;;;;;5018613;28;20204;-82
2023/07/28 12:03:58;;;;;;;3.30;3.05;;;24.00;99.90;;;;;;5010723;28;20267;-82
2023/07/28 12:06:25;;;;;;;3.58;3.28;;;24.10;99.90;;;;;;5018249;28;20240;-82
2023/07/28 12:08:52;;;;;;;3.78;3.47;;;24.50;99.90;;;;;;5018313;28;20196;-81
2023/07/28 12:11:19;;;;;;;3.58;2.70;;;24.90;99.90;;;;;;5016667;28;20211;-82
2023/07/28 12:13:51;;;;;;;2.95;2.70;;;25.30;99.90;;;;;;5018561;28;20622;-82
2023/07/28 12:16:32;;;;;;;3.42;3.13;;;25.80;99.90;;;;;;5018090;28;20220;-82
2023/07/28 12:18:59;;;;;;;2.70;2.50;;;26.70;99.90;;;;;;5019273;28;20248;-82
2023/07/28 12:21:26;;;;;;;2.65;2.40;;;26.80;99.90;;;;;;5018853;28;20204;-83
2023/07/28 12:23:53;;;;;;;2.53;2.33;;;26.10;99.90;;;;;;5018444;28;20287;-83
2023/07/28 12:26:20;;;;;;;2.40;2.20;;;26.10;99.90;;;;;;5017106;28;20288;-83
2023/07/28 12:28:46;;;;;;;3.13;2.50;;;26.90;99.90;;;;;;5018106;28;20212;-83
2023/07/28 12:31:14;;;;;;;2.75;2.30;;;26.80;99.90;;;;;;5017829;28;20205;-84
2023/07/28 12:33:41;;;;;;;2.88;2.17;;;26.90;99.90;;;;;;5017085;28;20226;-82
2023/07/28 12:36:09;;;;;;;2.10;1.90;;;26.60;99.90;;;;;;5002039;28;20228;-83
2023/07/28 12:38:36;;;;;;;2.97;2.42;;;26.80;99.90;;;;;;5011923;28;20224;-83
2023/07/28 12:41:03;;;;;;;2.40;2.20;;;26.20;99.90;;;;;;5008815;28;20207;-83
2023/07/28 12:43:30;;;;;;;2.10;2.00;;;26.20;99.90;;;;;;5018598;28;20234;-81
2023/07/28 12:45:57;;;;;;;3.70;2.40;;;26.60;99.90;;;;;;5004560;28;20229;-83
2023/07/28 12:48:25;;;;;;;3.00;2.53;;;26.30;99.90;;;;;;5017792;28;20200;-82
2023/07/28 12:50:51;;;;;;;2.78;2.17;;;26.40;99.90;;;;;;5018485;28;20201;-81
2023/07/28 12:53:18;;;;;;;3.00;2.30;;;26.20;99.90;;;;;;5011654;28;20213;-83
2023/07/28 12:55:45;;;;;;;2.83;2.20;;;26.10;99.90;;;;;;5015616;28;20219;-83